Kastav — 9AA6417 — position and weather

sailwx.info

Track history (hours):
 
Tides and Currents Weather Stations Pressure Air Temp Water Temp Dewpoint Dewpoint Depression Visibility Wind Speed Wind Dir Waves Ship Positions

Kastav

Last reported at 2016-Dec-03 13:31 UTC. Time now 2016-Dec-03 13:44 UTC.
Position N 60°06' E 025°37'.

Length 195 m; draft 6.5 m.

Type: Tanker. MMSI: 238257000.

Date/timePositionNaut miles runAvg speedWind from/ knotsBaromVisibWave heightAir tempDewpointWater temp
2016-Dec-03 13:31N 60°06' E 025°37'6 6.1
2016-Dec-03 12:34N 60°01' E 025°31'0 0.1
2016-Dec-03 11:34N 60°01' E 025°31'0 0.0
2016-Dec-03 10:34N 60°01' E 025°31'0 0.0
2016-Dec-03 09:34N 60°01' E 025°31'0 0.0
2016-Dec-03 08:34N 60°01' E 025°31'0 0.0
2016-Dec-03 07:33N 60°01' E 025°31'0 0.1
2016-Dec-03 06:33N 60°01' E 025°31'0 0.0
2016-Dec-03 05:28N 60°01' E 025°31'0 0.1
2016-Dec-03 04:33N 60°01' E 025°31'0 0.0
2016-Dec-03 03:31N 60°01' E 025°31'0 0.0
2016-Dec-03 02:33N 60°01' E 025°31'0 0.1
2016-Dec-03 01:34N 60°01' E 025°31'0 0.0
2016-Dec-03 00:33N 60°01' E 025°31'0 0.0
2016-Dec-02 23:33N 60°01' E 025°31'0 0.0
2016-Dec-02 22:33N 60°01' E 025°31'0 0.0
2016-Dec-02 21:33N 60°01' E 025°31'0 0.0
2016-Dec-02 20:30N 60°01' E 025°31'0 0.1
2016-Dec-02 19:33N 60°01' E 025°31'0 0.0
2016-Dec-02 18:24N 60°01' E 025°31'51 1.8
2016-Dec-01 14:33N 59°39' E 023°59'1212.1
2016-Dec-01 13:32N 59°36' E 023°36'1311.9
2016-Dec-01 12:29N 59°32' E 023°12'  
2016-Nov-29 07:28N 55°39' E 015°45'1112.1
2016-Nov-29 06:33N 55°36' E 015°26'1211.9
2016-Nov-29 05:33N 55°31' E 015°07'1212.2
2016-Nov-29 04:34N 55°26' E 014°48'1211.8
2016-Nov-29 03:34N 55°18' E 014°31'1111.5
2016-Nov-29 02:33N 55°10' E 014°18'1312.9
2016-Nov-29 01:33N 55°10' E 013°55'1312.9
2016-Nov-29 00:30N 55°11' E 013°32'1312.3
2016-Nov-28 23:27N 55°13' E 013°09'1112.6
2016-Nov-28 22:33N 55°15' E 012°50'1010.4
2016-Nov-28 21:33N 55°24' E 012°39'1111.4
2016-Nov-28 20:33N 55°35' E 012°42'1010.4
2016-Nov-28 19:33N 55°45' E 012°41'7 7.4
2016-Nov-28 18:33N 55°53' E 012°40'5 4.7
2016-Nov-28 17:33N 55°57' E 012°38'6 5.5
2016-Nov-28 16:33N 56°03' E 012°38'1111.1
2016-Nov-28 15:33N 56°10' E 012°23'1111.3
2016-Nov-28 14:33N 56°19' E 012°12'6 0.4
2016-Nov-27 23:11N 56°25' E 012°14'2 1.4
2016-Nov-27 21:30N 56°22' E 012°13'1 1.1
2016-Nov-27 20:16N 56°21' E 012°12'2 2.4
2016-Nov-27 19:31N 56°19' E 012°12'3 3.5
2016-Nov-27 18:32N 56°17' E 012°06'5012.6
2016-Nov-27 14:33N 57°05' E 011°39'1313.4
2016-Nov-27 13:33N 57°18' E 011°31'1312.9
2016-Nov-27 12:33N 57°29' E 011°21'1212.2
2016-Nov-27 11:33N 57°38' E 011°04'1312.7
2016-Nov-27 10:33N 57°46' E 010°47'1111.4
2016-Nov-27 09:33N 57°48' E 010°26'177 8.2
2016-Nov-26 12:05N 55°38' E 006°47'611.4
2016-Nov-26 11:33N 55°33' E 006°45'1111.3
2016-Nov-26 10:33N 55°21' E 006°41'1111.3
2016-Nov-26 09:33N 55°10' E 006°40'1111.3
2016-Nov-26 08:33N 54°59' E 006°39'7 6.6
2016-Nov-26 07:33N 54°53' E 006°35'6 6.0
2016-Nov-26 06:31N 54°49' E 006°44'7 6.8
2016-Nov-26 05:33N 54°46' E 006°53'1 0.9
2016-Nov-26 04:33N 54°45' E 006°52'2 1.9
2016-Nov-26 03:33N 54°46' E 006°49'1 1.5
2016-Nov-26 02:33N 54°47' E 006°47'1 1.2
2016-Nov-26 01:33N 54°48' E 006°46'1 0.9
2016-Nov-26 00:27N 54°48' E 006°44'0 0.4
2016-Nov-25 23:33N 54°49' E 006°44'6 6.0
2016-Nov-25 22:34N 54°48' E 006°54'1211.3
2016-Nov-25 21:27N 54°38' E 007°07'2511.5
2016-Nov-25 19:19N 54°16' E 007°27'1411.2
2016-Nov-25 18:07N 54°04' E 007°36'611.1
2016-Nov-25 17:33N 53°58' E 007°41'10 9.5
2016-Nov-25 16:33N 53°52' E 007°53'1111.0
2016-Nov-25 15:33N 53°47' E 008°10'1313.0
2016-Nov-25 14:33N 53°38' E 008°26'7 6.3
2016-Nov-25 13:31N 53°34' E 008°34'0 0.1
2016-Nov-25 12:31N 53°33' E 008°34'  
Track history (hours):
 
Tides and Currents Weather Stations Pressure Air Temp Water Temp Dewpoint Dewpoint Depression Visibility Wind Speed Wind Dir Waves Ship Positions

Kastav

Last reported at 2016-Dec-03 13:31 UTC. Time now 2016-Dec-03 13:44 UTC.
Position N 60°06' E 025°37'.

Length 195 m; draft 6.5 m.

Type: Tanker. MMSI: 238257000.

Date/timePositionNaut miles runAvg speedWind from/ knotsBaromVisibWave heightAir tempDewpointWater temp
2016-Dec-03 13:31N 60°06' E 025°37'6 6.1
2016-Dec-03 12:34N 60°01' E 025°31'0 0.1
2016-Dec-03 11:34N 60°01' E 025°31'0 0.0
2016-Dec-03 10:34N 60°01' E 025°31'0 0.0
2016-Dec-03 09:34N 60°01' E 025°31'0 0.0
2016-Dec-03 08:34N 60°01' E 025°31'0 0.0
2016-Dec-03 07:33N 60°01' E 025°31'0 0.1
2016-Dec-03 06:33N 60°01' E 025°31'0 0.0
2016-Dec-03 05:28N 60°01' E 025°31'0 0.1
2016-Dec-03 04:33N 60°01' E 025°31'0 0.0
2016-Dec-03 03:31N 60°01' E 025°31'0 0.0
2016-Dec-03 02:33N 60°01' E 025°31'0 0.1
2016-Dec-03 01:34N 60°01' E 025°31'0 0.0
2016-Dec-03 00:33N 60°01' E 025°31'0 0.0
2016-Dec-02 23:33N 60°01' E 025°31'0 0.0
2016-Dec-02 22:33N 60°01' E 025°31'0 0.0
2016-Dec-02 21:33N 60°01' E 025°31'0 0.0
2016-Dec-02 20:30N 60°01' E 025°31'0 0.1
2016-Dec-02 19:33N 60°01' E 025°31'0 0.0
2016-Dec-02 18:24N 60°01' E 025°31'51 1.8
2016-Dec-01 14:33N 59°39' E 023°59'1212.1
2016-Dec-01 13:32N 59°36' E 023°36'1311.9
2016-Dec-01 12:29N 59°32' E 023°12'  
2016-Nov-29 07:28N 55°39' E 015°45'1112.1
2016-Nov-29 06:33N 55°36' E 015°26'1211.9
2016-Nov-29 05:33N 55°31' E 015°07'1212.2
2016-Nov-29 04:34N 55°26' E 014°48'1211.8
2016-Nov-29 03:34N 55°18' E 014°31'1111.5
2016-Nov-29 02:33N 55°10' E 014°18'1312.9
2016-Nov-29 01:33N 55°10' E 013°55'1312.9
2016-Nov-29 00:30N 55°11' E 013°32'1312.3
2016-Nov-28 23:27N 55°13' E 013°09'1112.6
2016-Nov-28 22:33N 55°15' E 012°50'1010.4
2016-Nov-28 21:33N 55°24' E 012°39'1111.4
2016-Nov-28 20:33N 55°35' E 012°42'1010.4
2016-Nov-28 19:33N 55°45' E 012°41'7 7.4
2016-Nov-28 18:33N 55°53' E 012°40'5 4.7
2016-Nov-28 17:33N 55°57' E 012°38'6 5.5
2016-Nov-28 16:33N 56°03' E 012°38'1111.1
2016-Nov-28 15:33N 56°10' E 012°23'1111.3
2016-Nov-28 14:33N 56°19' E 012°12'6 0.4
2016-Nov-27 23:11N 56°25' E 012°14'2 1.4
2016-Nov-27 21:30N 56°22' E 012°13'1 1.1
2016-Nov-27 20:16N 56°21' E 012°12'2 2.4
2016-Nov-27 19:31N 56°19' E 012°12'3 3.5
2016-Nov-27 18:32N 56°17' E 012°06'5012.6
2016-Nov-27 14:33N 57°05' E 011°39'1313.4
2016-Nov-27 13:33N 57°18' E 011°31'1312.9
2016-Nov-27 12:33N 57°29' E 011°21'1212.2
2016-Nov-27 11:33N 57°38' E 011°04'1312.7
2016-Nov-27 10:33N 57°46' E 010°47'1111.4
2016-Nov-27 09:33N 57°48' E 010°26'177 8.2
2016-Nov-26 12:05N 55°38' E 006°47'611.4
2016-Nov-26 11:33N 55°33' E 006°45'1111.3
2016-Nov-26 10:33N 55°21' E 006°41'1111.3
2016-Nov-26 09:33N 55°10' E 006°40'1111.3
2016-Nov-26 08:33N 54°59' E 006°39'7 6.6
2016-Nov-26 07:33N 54°53' E 006°35'6 6.0
2016-Nov-26 06:31N 54°49' E 006°44'7 6.8
2016-Nov-26 05:33N 54°46' E 006°53'1 0.9
2016-Nov-26 04:33N 54°45' E 006°52'2 1.9
2016-Nov-26 03:33N 54°46' E 006°49'1 1.5
2016-Nov-26 02:33N 54°47' E 006°47'1 1.2
2016-Nov-26 01:33N 54°48' E 006°46'1 0.9
2016-Nov-26 00:27N 54°48' E 006°44'0 0.4
2016-Nov-25 23:33N 54°49' E 006°44'6 6.0
2016-Nov-25 22:34N 54°48' E 006°54'1211.3
2016-Nov-25 21:27N 54°38' E 007°07'2511.5
2016-Nov-25 19:19N 54°16' E 007°27'1411.2
2016-Nov-25 18:07N 54°04' E 007°36'611.1
2016-Nov-25 17:33N 53°58' E 007°41'10 9.5
2016-Nov-25 16:33N 53°52' E 007°53'1111.0
2016-Nov-25 15:33N 53°47' E 008°10'1313.0
2016-Nov-25 14:33N 53°38' E 008°26'7 6.3
2016-Nov-25 13:31N 53°34' E 008°34'0 0.1
2016-Nov-25 12:31N 53°33' E 008°34'  

Dump ship's entire track history